Tropical Cyclones
[Index]
Season 2020-2021 Tropical Cyclone 202021_08 Track Map
Season 2020-2021 Summaries: [BoM-AU]
<<- Previous TC | BoM 2020-2021 Season | Next TC ->>

click for intensity scale information  Lat/long Grid: Show Hide

 Date Labels: Show Hide

Bureau of Meteorology Tropical Cyclone Data

Name: 202021_08

18 Jan 2021 00:00 UTC to 23 Jan 2021 06:00 UTC

    date/time    lat    long    hPa   cat  kts
2021-01-18 00   10.9   132.5   1004         15          
2021-01-18 06   10.7   131.3   1003         15          
2021-01-18 12   10.7   129.7   1004         15          
2021-01-18 18   10.8   128.6   1002         15          
2021-01-19 00   10.8   127.6   1003         20          
2021-01-19 06   10.8   126.5   1001         20          
2021-01-19 12   11.2   125.6   1000         20          
2021-01-19 18   11.8   124.8   1002         25          
2021-01-20 00   12.4   123.6   1000         25          
2021-01-20 06   12.9   122.8   1000         25          
2021-01-20 12   13.8   121.5   1000         30          
2021-01-20 18   14.6   120.7    998         30          
2021-01-21 00   15.0   120.3    998         35          
2021-01-21 06   15.8   119.9    996         35          
2021-01-21 12   16.6   119.8    996         35          
2021-01-21 18   17.5   119.8    994    1    35          
2021-01-22 00   18.3   119.9    992    1    35          
2021-01-22 06   19.5   120.5    992    1    30          
2021-01-22 12   20.6   121.1    994    1    25          
2021-01-22 18   21.5   122.1    996         20          
2021-01-23 00   22.3   123.2    998         15          
2021-01-23 06   23.2   124.0    998         15          
Winds are 10-min average.

Tropical cyclone tracks developed by Michael Bath using data from the Bureau of Meteorology and Google Maps.


Document: tropical_cyclone_202021_08.htm
Updated: 20 April 2021
[Australian Severe Weather index] [Copyright Notice] [Email Contacts] [Search This Site] [Privacy Policy]


Main Index Home Page Stock Weather Photos Extreme Storms Discussion Storm News and Storm Chasing Reports Tropical Cyclones / Hurricanes / Typhoons Weather Data and Links Wild Fires / Bushfires Weather Observation Techniques Weather Picture Catalogue Tornado Pictures and Reports Stock Video Footage and DVDs for sale